Nearby METAR Reports

 

KBED - Bedford, Massachusetts, USA
Distance from station: W 5mi, 9km
Updated: Mon, 22-Oct-2018 11:56am EDT
Few Clouds
Few Clouds
 Wind from WSW
Wind: WSW 9 mph , 15 km/h
Temperature: 48°F , 9°C
Wind Chill: 44°F , 7°C
Dew Point: 27°F , -3°C
Humidity: 43%
Barometer: 1021 hPa
Clouds: Few Clouds
Visibility: 10 miles , 16 km
Cloud details: Few Clouds 5000 ft
2018/10/22 15:56 KBED 221556Z 25008KT 10SM FEW050 09/M03 A3015 RMK AO2 SLP227 T00891033
KBOS - Boston, Massachusetts, USA
Distance from station: SE 11mi, 18km
Updated: Mon, 22-Oct-2018 11:54am EDT
Few Clouds
Few Clouds
 Wind from WNW
Wind: WNW 14 mph , 22 km/h, Gust: 22 mph , 35 km/h
Temperature: 48°F , 9°C
Wind Chill: 42°F , 6°C
Dew Point: 25°F , -4°C
Humidity: 40%
Barometer: 1021.3 hPa
Clouds: Few Clouds
Visibility: 10 miles , 16 km
Cloud details: Few Clouds 5000 ft
Few Clouds 25000 ft
2018/10/22 15:54 KBOS 221554Z 29012G19KT 10SM FEW050 FEW250 09/M04 A3016 RMK AO2 SLP213 T00941039
 
KBVY - Beverly, Massachusetts, USA
Distance from station: ENE 17mi, 27km
Updated: Mon, 22-Oct-2018 11:53am EDT
Clear
Clear
 Wind from W
Wind: W 12 mph , 19 km/h
Temperature: 46°F , 8°C
Wind Chill: 40°F , 4°C
Dew Point: 25°F , -4°C
Humidity: 43%
Barometer: 1021 hPa
Clouds: Clear
Visibility: 10 miles , 16 km
2018/10/22 15:53 KBVY 221553Z 27010KT 10SM CLR 08/M04 A3015 RMK AO2 SLP207 T00781044
KMQE - East Milton, Massachusetts, USA
Distance from station: SSE 17mi, 28km
Updated: Mon, 22-Oct-2018 11:56am EDT

 Wind from W
Wind: W 12 mph , 19 km/h, Gust: 21 mph , 33 km/h
Temperature: 45°F , 7°C
Wind Chill: 39°F , 4°C
Dew Point: 27°F , -3°C
Humidity: 49%
Barometer: 1020.7 hPa
2018/10/22 15:56 KMQE 221556Z AUTO 27010G18KT 07/M03 A3014 RMK AO1 SLP223 T00671028
 
KLWM - Lawrence, Massachusetts, USA
Distance from station: N 18mi, 29km
Updated: Mon, 22-Oct-2018 11:54am EDT
Clear
Clear
 Wind from WSW
Wind: WSW 12 mph , 19 km/h
Temperature: 48°F , 9°C
Wind Chill: 43°F , 6°C
Dew Point: 25°F , -4°C
Humidity: 40%
Barometer: 1022 hPa
Clouds: Clear
Visibility: 10 miles , 16 km
2018/10/22 15:54 KLWM 221554Z 24010KT 10SM CLR 09/M04 A3018 RMK AO2 SLP219 T00891044
KOWD - Norwood, Massachusetts, USA
Distance from station: S 19mi, 31km
Updated: Mon, 22-Oct-2018 11:53am EDT
Clear
Clear
 Wind from WSW
Wind: WSW 9 mph , 15 km/h
Temperature: 50°F , 10°C
Wind Chill: 46°F , 8°C
Dew Point: 28°F , -2°C
Humidity: 43%
Barometer: 1021.7 hPa
Clouds: Clear
Visibility: 10 miles , 16 km
2018/10/22 15:53 KOWD 221553Z 24008KT 200V280 10SM CLR 10/M02 A3017 RMK AO2 SLP217 T01001022
 
KASH - Nashua/Boire Fld, New Hampshire, USA
Distance from station: NW 28mi, 45km
Updated: Mon, 22-Oct-2018 11:56am EDT
Few Clouds
Few Clouds
 Wind from NW
Wind: NW 6 mph , 9 km/h
Temperature: 46°F , 8°C
Wind Chill: 43°F , 6°C
Dew Point: 25°F , -4°C
Humidity: 43%
Barometer: 1021 hPa
Clouds: Few Clouds
Visibility: 10 miles , 16 km
Cloud details: Few Clouds 5000 ft
2018/10/22 15:56 KASH 221556Z 32005KT 10SM FEW050 08/M04 A3015 RMK AO2 SLPNO T00781044
KFIT - Fitchburg, Massachusetts, USA
Distance from station: WNW 29mi, 47km
Updated: Mon, 22-Oct-2018 11:52am EDT
Clear
Clear
 Wind from WNW
Wind: WNW 14 mph , 22 km/h, Gust: 23 mph , 37 km/h
Temperature: 46°F , 8°C
Wind Chill: 40°F , 4°C
Dew Point: 25°F , -4°C
Humidity: 43%
Barometer: 1021.3 hPa
Clouds: Clear
Visibility: 10 miles , 16 km
2018/10/22 15:52 KFIT 221552Z AUTO 30012G20KT 10SM CLR 08/M04 A3016 RMK AO2 SLP218 T00831044
 
KMHT - Manchester, New Hampshire, USA
Distance from station: NNW 35mi, 56km
Updated: Mon, 22-Oct-2018 11:53am EDT
Few Clouds
Few Clouds
 Wind from W
Wind: W 8 mph , 13 km/h
Temperature: 46°F , 8°C
Wind Chill: 42°F , 6°C
Dew Point: 21°F , -6°C
Humidity: 37%
Barometer: 1020.7 hPa
Clouds: Few Clouds
Visibility: 10 miles , 16 km
Cloud details: Few Clouds 4500 ft
Few Clouds 15000 ft
2018/10/22 15:53 KMHT 221553Z 28007KT 10SM FEW045 FEW150 08/M06 A3014 RMK AO2 SLP221 T00781061
KGHG - Marshfield, Massachusetts, USA
Distance from station: SE 37mi, 59km
Updated: Mon, 22-Oct-2018 12:15pm EDT
Clear
Clear
 Wind from varies
Wind: varies 7 mph , 11 km/h, Gust: 14 mph , 22 km/h
Temperature: 48°F , 9°C
Wind Chill: 45°F , 7°C
Dew Point: 27°F , -3°C
Humidity: 43%
Barometer: 1021.3 hPa
Clouds: Clear
Visibility: 10 miles , 16 km
2018/10/22 16:15 KGHG 221615Z AUTO VRB06G12KT 10SM CLR 09/M03 A3016 RMK AO2
 
KORH - Worcester, Massachusetts, USA
Distance from station: WSW 37mi, 59km
Updated: Mon, 22-Oct-2018 11:54am EDT
Clear
Clear
 Wind from W
Wind: W 14 mph , 22 km/h, Gust: 20 mph , 31 km/h
Temperature: 45°F , 7°C
Wind Chill: 39°F , 4°C
Dew Point: 27°F , -3°C
Humidity: 49%
Barometer: 1021 hPa
Clouds: Clear
Visibility: 10 miles , 16 km
2018/10/22 15:54 KORH 221554Z 26012G17KT 10SM CLR 07/M03 A3015 RMK AO2 SLP218 T00671028
KSFZ - Pawtucket, Rhode Island, USA
Distance from station: SSW 41mi, 65km
Updated: Mon, 22-Oct-2018 11:56am EDT
Mostly cloudy
Mostly cloudy
 Wind from W
Wind: W 9 mph , 15 km/h, Gust: 17 mph , 28 km/h
Temperature: 46°F , 8°C
Wind Chill: 41°F , 5°C
Dew Point: 28°F , -2°C
Humidity: 50%
Barometer: 1022 hPa
Clouds: Mostly cloudy
Visibility: 10 miles , 16 km
Cloud details: Mostly cloudy 4400 ft
2018/10/22 15:56 KSFZ 221556Z AUTO 27008G15KT 10SM BKN044 08/M02 A3018 RMK AO2 SLP169 T00831017
 
KTAN - Taunton, Massachusetts, USA
Distance from station: SSE 41mi, 66km
Updated: Mon, 22-Oct-2018 11:52am EDT
Clear
Clear
 Wind from W
Wind: W 6 mph , 9 km/h
Temperature: 48°F , 9°C
Wind Chill: 45°F , 7°C
Dew Point: 27°F , -3°C
Humidity: 43%
Barometer: 1022.4 hPa
Clouds: Clear
Visibility: 10 miles , 16 km
2018/10/22 15:52 KTAN 221552Z AUTO 27005KT 10SM CLR 09/M03 A3019 RMK AO2 SLP223 T00891033
KPYM - Plymouth, Massachusetts, USA
Distance from station: SSE 44mi, 71km
Updated: Mon, 22-Oct-2018 11:52am EDT
Clear
Clear
 Wind from W
Wind: W 9 mph , 15 km/h
Temperature: 50°F , 10°C
Wind Chill: 46°F , 8°C
Dew Point: 27°F , -3°C
Humidity: 40%
Barometer: 1022.4 hPa
Clouds: Clear
Visibility: 10 miles , 16 km
2018/10/22 15:52 KPYM 221552Z AUTO 28008KT 10SM CLR 10/M03 A3019 RMK AO2 SLP223 T01001033
 
KPSM - Portsmouth/Pease, New Hampshire, USA
Distance from station: NNE 46mi, 74km
Updated: Mon, 22-Oct-2018 11:56am EDT
Few Clouds
Few Clouds
 Wind from NW
Wind: NW 18 mph , 30 km/h
Temperature: 45°F , 7°C
Wind Chill: 37°F , 3°C
Dew Point: 19°F , -7°C
Humidity: 37%
Barometer: 1020 hPa
Clouds: Few Clouds
Visibility: 10 miles , 16 km
Cloud details: Few Clouds 4000 ft
Few Clouds 20000 ft
2018/10/22 15:56 KPSM 221556Z 31016KT 10SM FEW040 FEW200 07/M07 A3012 RMK AO2A SLP203 T00721073
KAFN - Jaffrey, New Hampshire, USA
Distance from station: WNW 47mi, 76km
Updated: Mon, 22-Oct-2018 11:52am EDT
Clear
Clear
 Wind from W
Wind: W 10 mph , 17 km/h
Temperature: 43°F , 6°C
Wind Chill: 37°F , 3°C
Dew Point: 25°F , -4°C
Humidity: 49%
Barometer: 1020.3 hPa
Clouds: Clear
Visibility: 10 miles , 16 km
2018/10/22 15:52 KAFN 221552Z AUTO 27009KT 10SM CLR 06/M04 A3013 RMK AO2 SLP218 T00611039